createdAt,value
2019-04-30T00:01:07.516Z,98791.45
2019-04-30T00:04:20.410Z,98788.61
2019-04-30T00:07:26.250Z,98781.80
2019-04-30T00:10:36.995Z,98787.94
2019-04-30T00:13:39.491Z,98791.23
2019-04-30T00:16:45.237Z,98772.63
2019-04-30T00:19:55.811Z,98783.68
2019-04-30T00:22:59.538Z,98778.09
2019-04-30T00:26:10.300Z,98776.91
2019-04-30T00:29:19.110Z,98778.75
2019-04-30T00:32:20.321Z,98788.30
2019-04-30T00:35:26.092Z,98780.52
2019-04-30T00:38:36.046Z,98777.38
2019-04-30T00:41:39.876Z,98778.44
2019-04-30T00:44:46.919Z,98775.77
2019-04-30T00:47:52.609Z,98770.02
2019-04-30T00:50:58.901Z,98773.39
2019-04-30T00:54:05.649Z,98771.39
2019-04-30T00:57:11.543Z,98781.13
2019-04-30T01:00:25.054Z,98785.83
2019-04-30T01:03:29.002Z,98781.84
2019-04-30T01:06:35.019Z,98793.52
2019-04-30T01:09:46.480Z,98790.30
2019-04-30T01:12:50.462Z,98788.41
2019-04-30T01:15:56.214Z,98788.77
2019-04-30T01:19:05.696Z,98791.14
2019-04-30T01:22:10.688Z,98790.86
2019-04-30T01:25:16.650Z,98795.39
2019-04-30T01:28:24.308Z,98799.80
2019-04-30T01:31:31.662Z,98795.00
2019-04-30T01:34:39.388Z,98789.36
2019-04-30T01:37:46.063Z,98789.85
2019-04-30T01:40:51.864Z,98787.94
2019-04-30T01:43:58.525Z,98785.62
2019-04-30T01:47:04.340Z,98787.11
2019-04-30T01:50:10.221Z,98787.21
2019-04-30T01:53:15.997Z,98786.69
2019-04-30T01:56:31.272Z,98785.39
2019-04-30T01:59:54.621Z,98781.93
2019-04-30T02:03:00.462Z,98784.48
2019-04-30T02:06:06.124Z,98777.78
2019-04-30T02:09:12.160Z,98777.96
2019-04-30T02:12:19.705Z,98787.41
2019-04-30T02:15:25.363Z,98776.87
2019-04-30T02:18:31.149Z,98773.42
2019-04-30T02:21:38.516Z,98769.47
2019-04-30T02:24:44.344Z,98764.50
2019-04-30T02:27:50.018Z,98764.50
2019-04-30T02:30:55.773Z,98768.30
2019-04-30T02:34:10.246Z,98759.13
2019-04-30T02:37:21.134Z,98761.75
2019-04-30T02:40:29.989Z,98757.41
2019-04-30T02:43:35.949Z,98763.91
2019-04-30T02:46:44.239Z,98761.84
2019-04-30T02:49:53.428Z,98767.09
2019-04-30T02:53:00.235Z,98767.09
2019-04-30T02:56:06.506Z,98759.94
2019-04-30T02:59:12.460Z,98765.92
2019-04-30T03:02:19.545Z,98772.97
2019-04-30T03:05:25.395Z,98770.23
2019-04-30T03:08:31.137Z,98770.23
2019-04-30T03:11:40.132Z,98777.42
2019-04-30T03:14:44.400Z,98777.19
2019-04-30T03:18:19.670Z,98776.38
2019-04-30T03:21:53.685Z,98784.83
2019-04-30T03:24:59.796Z,98776.22
2019-04-30T03:28:05.653Z,98786.12
2019-04-30T03:31:12.956Z,98787.20
2019-04-30T03:34:25.152Z,98787.20
2019-04-30T03:37:26.041Z,98792.56
2019-04-30T03:40:31.734Z,98786.41
2019-04-30T03:43:39.885Z,98777.53
2019-04-30T03:46:44.882Z,98780.24
2019-04-30T03:49:50.583Z,98778.27
2019-04-30T03:52:56.265Z,98779.21
2019-04-30T03:56:02.013Z,98785.91
2019-04-30T03:59:10.116Z,98789.78
2019-04-30T04:02:43.212Z,98782.63
2019-04-30T04:05:54.541Z,98781.10
2019-04-30T04:09:06.794Z,98776.69
2019-04-30T04:12:21.842Z,98772.43
2019-04-30T04:15:29.755Z,98779.33
2019-04-30T04:18:34.932Z,98776.63
2019-04-30T04:21:40.616Z,98779.37
2019-04-30T04:24:46.480Z,98790.94
2019-04-30T04:27:52.184Z,98785.28
2019-04-30T04:31:00.165Z,98792.77
2019-04-30T04:34:05.455Z,98802.45
2019-04-30T04:37:11.166Z,98805.23
2019-04-30T04:40:17.156Z,98801.61
2019-04-30T04:43:22.976Z,98795.32
2019-04-30T04:46:30.782Z,98799.36
2019-04-30T04:49:36.095Z,98794.88
2019-04-30T04:52:41.772Z,98798.80
2019-04-30T04:55:49.697Z,98796.83
2019-04-30T04:58:54.836Z,98795.28
2019-04-30T05:02:03.283Z,98791.73
2019-04-30T05:05:09.655Z,98792.72
2019-04-30T05:08:15.515Z,98797.80
2019-04-30T05:11:21.223Z,98807.64
2019-04-30T05:14:28.826Z,98815.44
2019-04-30T05:17:34.384Z,98814.21
2019-04-30T05:20:41.700Z,98814.06
2019-04-30T05:23:49.294Z,98813.66
2019-04-30T05:26:55.380Z,98817.15
2019-04-30T05:30:01.055Z,98818.33
2019-04-30T05:33:08.710Z,98813.65
2019-04-30T05:36:14.181Z,98804.66
2019-04-30T05:39:20.409Z,98799.48
2019-04-30T05:42:28.245Z,98812.87
2019-04-30T05:45:34.001Z,98803.47
2019-04-30T05:48:39.877Z,98803.93
2019-04-30T05:51:53.570Z,98802.12
2019-04-30T05:54:53.052Z,98812.25
2019-04-30T05:58:01.406Z,98800.59
2019-04-30T06:01:06.309Z,98793.81
2019-04-30T06:04:12.023Z,98797.09
2019-04-30T06:07:18.928Z,98788.70
2019-04-30T06:10:51.847Z,98788.53
2019-04-30T06:14:15.214Z,98791.70
2019-04-30T06:17:21.763Z,98792.59
2019-04-30T06:20:28.836Z,98802.80
2019-04-30T06:23:34.764Z,98813.23
2019-04-30T06:26:40.532Z,98803.70
2019-04-30T06:29:46.655Z,98806.31
2019-04-30T06:32:52.937Z,98798.93
2019-04-30T06:35:59.496Z,98794.22
2019-04-30T06:39:06.177Z,98801.98
2019-04-30T06:42:13.006Z,98797.14
2019-04-30T06:45:19.380Z,98808.38
2019-04-30T06:48:26.438Z,98810.00
2019-04-30T06:51:32.333Z,98813.69
2019-04-30T06:54:39.734Z,98808.02
2019-04-30T06:57:45.626Z,98804.17
2019-04-30T07:00:51.666Z,98801.44
2019-04-30T07:04:00.754Z,98797.13
2019-04-30T07:07:23.074Z,98789.71
2019-04-30T07:10:30.131Z,98788.52
2019-04-30T07:13:35.970Z,98779.69
2019-04-30T07:16:41.625Z,98781.56
2019-04-30T07:19:54.245Z,98788.90
2019-04-30T07:23:00.782Z,98792.85
2019-04-30T07:26:02.281Z,98792.48
2019-04-30T07:29:09.553Z,98791.72
2019-04-30T07:32:15.704Z,98787.91
2019-04-30T07:35:21.572Z,98783.34
2019-04-30T07:38:29.371Z,98783.38
2019-04-30T07:41:34.688Z,98781.52
2019-04-30T07:44:40.504Z,98782.08
2019-04-30T07:47:46.236Z,98778.08
2019-04-30T07:50:52.406Z,98768.48
2019-04-30T07:53:58.999Z,98770.67
2019-04-30T07:57:05.234Z,98766.67
2019-04-30T08:00:11.160Z,98770.28
2019-04-30T08:03:39.805Z,98765.17
2019-04-30T08:06:49.824Z,98768.59
2019-04-30T08:09:55.911Z,98762.96
2019-04-30T08:13:10.528Z,98753.95
2019-04-30T08:16:09.855Z,98753.70
2019-04-30T08:19:15.779Z,98756.30
2019-04-30T08:22:21.446Z,98748.23
2019-04-30T08:25:29.086Z,98746.44
2019-04-30T08:28:35.986Z,98748.80
2019-04-30T08:31:41.660Z,98743.70
2019-04-30T08:34:47.501Z,98748.06
2019-04-30T08:37:53.403Z,98736.48
2019-04-30T08:41:00.848Z,98733.59
2019-04-30T08:44:06.869Z,98737.09
2019-04-30T08:47:12.601Z,98731.80
2019-04-30T08:50:19.900Z,98715.14
2019-04-30T08:53:30.164Z,98722.40
2019-04-30T08:56:34.828Z,98719.34
2019-04-30T08:59:43.756Z,98706.53
2019-04-30T09:02:52.162Z,98696.98
2019-04-30T09:06:11.904Z,98691.31
2019-04-30T09:09:22.052Z,98690.09
2019-04-30T09:12:29.861Z,98676.05
2019-04-30T09:15:35.577Z,98677.45
2019-04-30T09:18:41.398Z,98679.09
2019-04-30T09:21:48.835Z,98674.75
2019-04-30T09:24:56.219Z,98669.20
2019-04-30T09:28:04.459Z,98665.16
2019-04-30T09:31:09.865Z,98654.20
2019-04-30T09:34:18.579Z,98647.81
2019-04-30T09:37:22.954Z,98641.09
2019-04-30T09:40:32.328Z,98641.87
2019-04-30T09:43:36.030Z,98645.63
2019-04-30T09:46:41.752Z,98643.53
2019-04-30T09:49:49.358Z,98649.65
2019-04-30T09:52:54.930Z,98641.05
2019-04-30T09:56:00.572Z,98641.95
2019-04-30T09:59:06.480Z,98640.30
2019-04-30T10:02:12.839Z,98632.02
2019-04-30T10:05:20.168Z,98633.03
2019-04-30T10:08:26.809Z,98623.87
2019-04-30T10:11:46.010Z,98624.17
2019-04-30T10:14:51.723Z,98618.62
2019-04-30T10:17:57.455Z,98615.78
2019-04-30T10:21:03.237Z,98608.87
2019-04-30T10:24:14.847Z,98601.11
2019-04-30T10:27:18.914Z,98594.70
2019-04-30T10:30:29.216Z,98591.00
2019-04-30T10:33:35.129Z,98580.94
2019-04-30T10:36:41.527Z,98575.00
2019-04-30T10:39:48.981Z,98566.19
2019-04-30T10:42:54.860Z,98560.34
2019-04-30T10:46:00.504Z,98555.95
2019-04-30T10:49:06.483Z,98540.36
2019-04-30T10:52:12.285Z,98538.28
2019-04-30T10:55:18.403Z,98541.20
2019-04-30T10:58:24.195Z,98534.15
2019-04-30T11:01:30.183Z,98525.71
2019-04-30T11:04:35.985Z,98512.80
2019-04-30T11:07:41.761Z,98508.34
2019-04-30T11:10:47.623Z,98519.96
2019-04-30T11:13:53.338Z,98504.00
2019-04-30T11:17:00.011Z,98501.84
2019-04-30T11:20:06.298Z,98498.86
2019-04-30T11:23:14.534Z,98493.42
2019-04-30T11:26:20.133Z,98497.88
2019-04-30T11:29:26.225Z,98494.47
2019-04-30T11:32:32.259Z,98491.67
2019-04-30T11:35:39.485Z,98483.03
2019-04-30T11:38:45.309Z,98480.73
2019-04-30T11:41:51.188Z,98470.09
2019-04-30T11:44:58.672Z,98462.97
2019-04-30T11:48:04.610Z,98460.58
2019-04-30T11:51:10.386Z,98463.57
2019-04-30T11:54:16.092Z,98457.46
2019-04-30T11:57:22.000Z,98458.69
2019-04-30T12:00:33.196Z,98458.25
2019-04-30T12:03:39.435Z,98464.39
2019-04-30T12:06:45.296Z,98458.20
2019-04-30T12:10:01.628Z,98443.24
2019-04-30T12:13:26.051Z,98426.20
2019-04-30T12:16:33.704Z,98449.23
2019-04-30T12:19:39.218Z,98446.42
2019-04-30T12:22:45.062Z,98443.53
2019-04-30T12:25:50.798Z,98443.41
2019-04-30T12:28:56.565Z,98452.46
2019-04-30T12:32:02.309Z,98445.66
2019-04-30T12:35:09.314Z,98444.08
2019-04-30T12:38:15.072Z,98441.93
2019-04-30T12:41:20.762Z,98443.48
2019-04-30T12:44:26.545Z,98445.55
2019-04-30T12:47:34.150Z,98443.72
2019-04-30T12:50:49.406Z,98439.10
2019-04-30T12:54:01.988Z,98434.46
2019-04-30T12:57:32.632Z,98425.52
2019-04-30T13:00:39.223Z,98433.60
2019-04-30T13:03:55.885Z,98431.08
2019-04-30T13:06:52.963Z,98437.62
2019-04-30T13:10:01.316Z,98438.98
2019-04-30T13:13:08.232Z,98427.09
2019-04-30T13:16:14.253Z,98428.33
2019-04-30T13:19:19.931Z,98436.26
2019-04-30T13:22:25.653Z,98431.80
2019-04-30T13:25:35.501Z,98434.77
2019-04-30T13:28:55.418Z,98433.98
2019-04-30T13:32:01.100Z,98417.97
2019-04-30T13:35:11.709Z,98424.52
2019-04-30T13:38:26.444Z,98410.19
2019-04-30T13:41:52.494Z,98409.67
2019-04-30T13:44:58.255Z,98399.52
2019-04-30T13:48:04.144Z,98410.42
2019-04-30T13:51:09.845Z,98407.69
2019-04-30T13:54:15.522Z,98415.22
2019-04-30T13:57:21.259Z,98415.02
2019-04-30T14:00:29.710Z,98414.47
2019-04-30T14:03:40.950Z,98408.34
2019-04-30T14:07:00.165Z,98420.63
2019-04-30T14:10:09.863Z,98423.98
2019-04-30T14:13:14.191Z,98419.72
2019-04-30T14:16:20.411Z,98419.56
2019-04-30T14:19:26.404Z,98419.92
2019-04-30T14:22:32.183Z,98420.22
2019-04-30T14:25:38.026Z,98413.93
2019-04-30T14:28:43.809Z,98415.07
2019-04-30T14:31:49.520Z,98409.98
2019-04-30T14:34:56.255Z,98417.25
2019-04-30T14:38:05.008Z,98410.78
2019-04-30T14:41:10.195Z,98415.80
2019-04-30T14:44:21.398Z,98410.91
2019-04-30T14:47:46.945Z,98425.77
2019-04-30T14:50:53.750Z,98428.47
2019-04-30T14:54:19.985Z,98423.22
2019-04-30T14:57:43.423Z,98430.44
2019-04-30T15:01:09.353Z,98441.11
2019-04-30T15:04:15.430Z,98434.66
2019-04-30T15:07:21.100Z,98436.52
2019-04-30T15:10:26.899Z,98450.06
2019-04-30T15:13:32.734Z,98456.23
2019-04-30T15:16:38.483Z,98470.59
2019-04-30T15:19:44.453Z,98469.55
2019-04-30T15:23:04.225Z,98475.63
2019-04-30T15:26:21.373Z,98491.52
2019-04-30T15:29:19.121Z,98496.41
2019-04-30T15:32:24.952Z,98503.36
2019-04-30T15:35:30.724Z,98498.52
2019-04-30T15:38:54.439Z,98501.83
2019-04-30T15:42:01.111Z,98499.33
2019-04-30T15:45:09.175Z,98502.01
2019-04-30T15:48:14.851Z,98504.94
2019-04-30T15:51:20.740Z,98497.35
2019-04-30T15:54:26.449Z,98507.25
2019-04-30T15:57:32.162Z,98510.59
2019-04-30T16:00:39.377Z,98510.99
2019-04-30T16:03:47.171Z,98521.91
2019-04-30T16:06:52.843Z,98527.50
2019-04-30T16:10:14.911Z,98529.92
2019-04-30T16:13:22.462Z,98533.08
2019-04-30T16:16:32.092Z,98526.75
2019-04-30T16:19:37.756Z,98548.85
2019-04-30T16:22:44.019Z,98561.43
2019-04-30T16:25:49.737Z,98567.27
2019-04-30T16:28:55.419Z,98564.64
2019-04-30T16:32:01.176Z,98563.75
2019-04-30T16:35:08.930Z,98572.66
2019-04-30T16:38:14.681Z,98571.33
2019-04-30T16:41:31.034Z,98570.11
2019-04-30T16:44:28.139Z,98576.25
2019-04-30T16:47:34.113Z,98577.48
2019-04-30T16:50:40.943Z,98585.35
2019-04-30T16:53:48.617Z,98583.23
2019-04-30T16:57:03.488Z,98578.44
2019-04-30T17:00:02.225Z,98587.59
2019-04-30T17:03:18.963Z,98587.91
2019-04-30T17:06:26.458Z,98588.28
2019-04-30T17:09:54.312Z,98602.39
2019-04-30T17:13:15.330Z,98606.97
2019-04-30T17:16:22.482Z,98619.25
2019-04-30T17:19:29.206Z,98611.55
2019-04-30T17:22:39.459Z,98620.91
2019-04-30T17:25:45.398Z,98631.61
2019-04-30T17:28:51.144Z,98631.86
2019-04-30T17:31:56.973Z,98632.02
2019-04-30T17:35:02.972Z,98644.30
2019-04-30T17:38:09.277Z,98633.52
2019-04-30T17:41:15.166Z,98638.09
2019-04-30T17:44:20.872Z,98647.05
2019-04-30T17:47:31.257Z,98657.34
2019-04-30T17:50:42.918Z,98683.57
2019-04-30T17:54:06.486Z,98677.26
2019-04-30T17:57:16.092Z,98680.31
2019-04-30T18:00:23.647Z,98674.31
2019-04-30T18:03:29.550Z,98681.54
2019-04-30T18:06:35.506Z,98685.98
2019-04-30T18:09:41.963Z,98677.55
2019-04-30T18:12:48.841Z,98663.64
2019-04-30T18:15:54.906Z,98671.43
2019-04-30T18:19:08.824Z,98662.64
2019-04-30T18:22:29.378Z,98653.02
2019-04-30T18:25:40.558Z,98653.17
2019-04-30T18:28:47.253Z,98675.94
2019-04-30T18:31:53.674Z,98681.22
2019-04-30T18:34:59.382Z,98669.81
2019-04-30T18:38:06.340Z,98665.34
2019-04-30T18:41:12.052Z,98674.70
2019-04-30T18:44:19.549Z,98675.72
2019-04-30T18:47:25.931Z,98687.98
2019-04-30T18:50:31.736Z,98693.77
2019-04-30T18:53:39.761Z,98689.87
2019-04-30T18:56:45.545Z,98689.44
2019-04-30T18:59:51.313Z,98683.12
2019-04-30T19:02:58.637Z,98687.55
2019-04-30T19:06:22.281Z,98699.36
2019-04-30T19:09:31.220Z,98699.66
2019-04-30T19:13:02.063Z,98706.69
2019-04-30T19:16:29.396Z,98708.89
2019-04-30T19:19:48.806Z,98712.92
2019-04-30T19:22:55.234Z,98726.63
2019-04-30T19:26:04.107Z,98731.11
2019-04-30T19:29:11.819Z,98733.66
2019-04-30T19:32:20.790Z,98738.50
2019-04-30T19:35:27.339Z,98747.92
2019-04-30T19:38:35.177Z,98751.54
2019-04-30T19:41:55.086Z,98753.16
2019-04-30T19:45:09.461Z,98752.76
2019-04-30T19:48:09.028Z,98746.64
2019-04-30T19:51:14.794Z,98768.65
2019-04-30T19:54:20.546Z,98777.58
2019-04-30T19:57:26.192Z,98773.76
2019-04-30T20:00:32.016Z,98776.50
2019-04-30T20:03:37.688Z,98780.81
2019-04-30T20:06:43.504Z,98786.92
2019-04-30T20:10:00.202Z,98792.28
2019-04-30T20:12:58.644Z,98786.22
2019-04-30T20:16:04.287Z,98790.75
2019-04-30T20:19:09.953Z,98796.70
2019-04-30T20:22:16.139Z,98802.57
2019-04-30T20:25:21.970Z,98797.98
2019-04-30T20:28:38.456Z,98799.69
2019-04-30T20:31:35.160Z,98801.38
2019-04-30T20:34:40.879Z,98812.05
2019-04-30T20:38:03.955Z,98812.48
2019-04-30T20:41:10.360Z,98809.95
2019-04-30T20:44:16.072Z,98815.50
2019-04-30T20:47:21.800Z,98815.30
2019-04-30T20:50:27.548Z,98823.57
2019-04-30T20:53:33.285Z,98825.27
2019-04-30T20:56:39.075Z,98832.98
2019-04-30T20:59:44.774Z,98835.66
2019-04-30T21:02:50.469Z,98835.70
2019-04-30T21:05:56.250Z,98839.33
2019-04-30T21:09:01.965Z,98845.58
2019-04-30T21:12:09.292Z,98854.50
2019-04-30T21:15:15.238Z,98849.78
2019-04-30T21:18:20.934Z,98860.11
2019-04-30T21:21:28.378Z,98865.28
2019-04-30T21:24:34.032Z,98861.08
2019-04-30T21:27:40.222Z,98871.77
2019-04-30T21:30:46.188Z,98870.66
2019-04-30T21:33:54.588Z,98872.53
2019-04-30T21:37:00.447Z,98878.91
2019-04-30T21:40:06.502Z,98882.88
2019-04-30T21:43:12.233Z,98886.77
2019-04-30T21:46:19.201Z,98879.55
2019-04-30T21:49:25.090Z,98885.48
2019-04-30T21:52:30.874Z,98884.35
2019-04-30T21:55:36.577Z,98886.38
2019-04-30T21:58:42.265Z,98888.74
2019-04-30T22:01:48.291Z,98896.78
2019-04-30T22:04:55.123Z,98895.39
2019-04-30T22:08:01.021Z,98899.55
2019-04-30T22:11:06.697Z,98900.72
2019-04-30T22:14:12.507Z,98902.08
2019-04-30T22:17:19.302Z,98902.02
2019-04-30T22:20:25.148Z,98898.71
2019-04-30T22:23:30.862Z,98898.89
2019-04-30T22:26:36.559Z,98900.67
2019-04-30T22:29:42.410Z,98900.05
2019-04-30T22:32:48.305Z,98904.06
2019-04-30T22:36:02.327Z,98900.36
2019-04-30T22:39:36.590Z,98896.92
2019-04-30T22:42:42.379Z,98903.03
2019-04-30T22:46:01.121Z,98900.59
2019-04-30T22:49:06.838Z,98895.03
2019-04-30T22:52:12.613Z,98906.17
2019-04-30T22:55:18.269Z,98896.84
2019-04-30T22:58:24.142Z,98887.72
2019-04-30T23:01:39.163Z,98890.36
2019-04-30T23:04:46.563Z,98894.97
2019-04-30T23:07:52.403Z,98894.80
2019-04-30T23:10:58.122Z,98881.86
2019-04-30T23:14:03.922Z,98886.38
2019-04-30T23:17:11.611Z,98879.50
2019-04-30T23:20:17.935Z,98887.69
2019-04-30T23:23:23.664Z,98881.55
2019-04-30T23:26:29.366Z,98881.55
2019-04-30T23:29:35.148Z,98894.16
2019-04-30T23:32:40.904Z,98894.16
2019-04-30T23:35:46.583Z,98890.33
2019-04-30T23:38:52.269Z,98892.59
2019-04-30T23:41:57.952Z,98890.77
2019-04-30T23:45:03.639Z,98891.87
2019-04-30T23:48:09.366Z,98894.22
2019-04-30T23:51:15.151Z,98900.47
2019-04-30T23:54:21.008Z,98897.45
2019-04-30T23:57:26.717Z,98894.41
